Time;durP1;ratioP1;P1;durP2;ratioP2;P2;SDS_P1;SDS_P2;PMS_P1;PMS_P2;Temp;Humidity;BMP_temperature;BMP_pressure;BME280_temperature;BME280_humidity;BME280_pressure;Samples;Min_cycle;Max_cycle;Signal;HPM_P1;HPM_P2
2023/12/25 00:02:00;;;;;;;1.83;0.93;;;;;;;10.75;78.88;97702.34;5088465;28;20236;-79
2023/12/25 00:04:27;;;;;;;1.13;0.80;;;;;;;10.75;79.23;97719.06;5086886;28;20555;-78
2023/12/25 00:06:53;;;;;;;1.37;0.60;;;;;;;10.67;80.07;97734.69;5085913;28;20215;-79
2023/12/25 00:09:20;;;;;;;0.83;0.63;;;;;;;10.63;79.93;97725.28;5087994;28;20213;-78
2023/12/25 00:11:47;;;;;;;1.37;0.70;;;;;;;10.61;80.46;97742.22;5086626;28;20224;-78
2023/12/25 00:14:13;;;;;;;2.83;0.60;;;;;;;10.57;80.66;97746.03;5088041;28;20235;-78
2023/12/25 00:16:41;;;;;;;1.20;0.70;;;;;;;10.62;79.71;97738.63;5088162;28;20714;-78
2023/12/25 00:19:08;;;;;;;1.47;0.60;;;;;;;10.61;79.58;97737.78;5086763;28;20259;-79
2023/12/25 00:21:35;;;;;;;1.70;0.70;;;;;;;10.63;79.99;97745.56;5087739;28;20243;-80
2023/12/25 00:24:01;;;;;;;1.20;0.90;;;;;;;10.61;79.90;97739.56;5084366;28;20551;-80
2023/12/25 00:26:28;;;;;;;2.07;0.70;;;;;;;10.64;80.04;97740.19;5077534;28;20206;-80
2023/12/25 00:28:54;;;;;;;0.87;0.67;;;;;;;10.62;78.98;97728.03;5078304;28;20703;-80
2023/12/25 00:31:21;;;;;;;1.97;0.90;;;;;;;10.60;79.28;97736.13;5078464;28;20229;-80
2023/12/25 00:33:47;;;;;;;2.93;0.80;;;;;;;10.59;79.15;97734.41;5077336;28;20220;-80
2023/12/25 00:36:15;;;;;;;0.93;0.67;;;;;;;10.61;78.24;97731.66;5076098;28;20212;-78
2023/12/25 00:38:42;;;;;;;0.50;0.50;;;;;;;10.66;77.82;97729.50;5079008;28;20211;-78
2023/12/25 00:41:08;;;;;;;1.30;0.60;;;;;;;10.62;77.88;97731.53;5078328;28;20244;-80
2023/12/25 00:43:35;;;;;;;3.67;0.80;;;;;;;10.56;78.96;97739.06;5080625;28;20239;-78
2023/12/25 00:46:05;;;;;;;1.77;0.70;;;;;;;10.50;79.00;97735.09;5086762;28;20203;-78
2023/12/25 00:48:31;;;;;;;1.57;0.90;;;;;;;10.48;78.99;97731.75;5087438;28;20212;-78
2023/12/25 00:50:58;;;;;;;1.30;0.70;;;;;;;10.49;77.90;97727.28;5087716;28;20208;-78
2023/12/25 00:53:25;;;;;;;1.53;0.80;;;;;;;10.49;78.72;97735.22;5087823;28;20577;-78
2023/12/25 00:55:52;;;;;;;0.63;0.53;;;;;;;10.49;78.05;97716.72;5087260;28;20213;-79
2023/12/25 00:58:20;;;;;;;1.00;0.80;;;;;;;10.45;78.80;97724.03;5087546;28;20230;-79
2023/12/25 01:00:47;;;;;;;1.10;0.70;;;;;;;10.42;79.63;97736.63;5088208;28;20593;-79
2023/12/25 01:03:13;;;;;;;0.90;0.67;;;;;;;10.39;79.94;97742.16;5088341;28;20209;-79
2023/12/25 01:05:40;;;;;;;0.83;0.70;;;;;;;10.36;79.78;97730.03;5089638;28;20242;-79
2023/12/25 01:08:07;;;;;;;0.70;0.70;;;;;;;10.47;77.79;97713.38;5087897;28;20199;-79
2023/12/25 01:10:35;;;;;;;0.90;0.60;;;;;;;10.42;78.45;97704.94;5087529;28;20218;-79
2023/12/25 01:13:01;;;;;;;1.90;0.67;;;;;;;10.34;78.79;97708.13;5087108;28;20227;-79
2023/12/25 01:15:28;;;;;;;0.50;0.50;;;;;;;10.35;78.26;97706.34;5087129;28;20205;-79
2023/12/25 01:17:54;;;;;;;1.67;0.80;;;;;;;10.30;79.05;97719.06;5087097;28;20227;-79
2023/12/25 01:20:21;;;;;;;0.73;0.60;;;;;;;10.30;78.95;97721.69;5087624;28;20207;-79
2023/12/25 01:22:47;;;;;;;0.90;0.70;;;;;;;10.30;78.40;97719.91;5086858;28;20225;-78
2023/12/25 01:25:14;;;;;;;1.93;0.70;;;;;;;10.28;78.06;97711.25;5087368;28;20207;-79
2023/12/25 01:27:42;;;;;;;2.47;0.90;;;;;;;10.26;77.84;97702.59;5087935;28;20210;-79
2023/12/25 01:30:10;;;;;;;0.73;0.60;;;;;;;10.23;78.01;97699.34;5088359;28;20208;-78
2023/12/25 01:32:36;;;;;;;0.77;0.70;;;;;;;10.17;78.46;97697.16;5087862;28;20231;-79
2023/12/25 01:35:03;;;;;;;0.70;0.60;;;;;;;10.18;77.51;97696.19;5088178;28;20220;-80
2023/12/25 01:37:32;;;;;;;1.10;0.87;;;;;;;10.19;76.97;97689.97;5083781;28;20237;-79
2023/12/25 01:39:58;;;;;;;0.70;0.70;;;;;;;10.18;77.36;97696.19;5088683;28;20678;-79
2023/12/25 01:42:25;;;;;;;0.90;0.60;;;;;;;10.15;77.32;97701.72;5087943;28;20237;-79
2023/12/25 01:44:53;;;;;;;1.27;0.60;;;;;;;10.13;76.84;97699.19;5086007;28;20282;-79
2023/12/25 01:47:21;;;;;;;0.70;0.70;;;;;;;10.19;75.38;97698.72;5082470;28;20647;-79
2023/12/25 01:49:48;;;;;;;1.17;0.80;;;;;;;10.08;77.42;97708.38;5075028;28;20203;-78
2023/12/25 01:52:16;;;;;;;1.10;0.70;;;;;;;9.99;77.81;97716.97;5077427;28;20237;-79
2023/12/25 01:54:43;;;;;;;0.60;0.60;;;;;;;10.03;76.62;97700.81;5084788;28;20223;-79
2023/12/25 01:57:10;;;;;;;0.83;0.70;;;;;;;10.05;76.78;97704.22;5083616;28;20237;-79
2023/12/25 01:59:36;;;;;;;0.80;0.63;;;;;;;9.95;77.39;97704.94;5084331;28;20407;-79
2023/12/25 02:02:04;;;;;;;1.40;0.80;;;;;;;9.90;78.11;97701.81;5083970;28;20242;-79
2023/12/25 02:04:31;;;;;;;0.90;0.70;;;;;;;9.87;78.00;97702.88;5083714;28;20208;-80
2023/12/25 02:06:59;;;;;;;2.30;0.67;;;;;;;9.83;78.04;97705.84;5079857;28;20209;-78
2023/12/25 02:09:26;;;;;;;1.40;0.80;;;;;;;9.81;78.41;97718.31;5084790;28;20222;-78
2023/12/25 02:11:52;;;;;;;1.17;0.70;;;;;;;9.73;79.47;97731.22;5084095;28;20240;-78
2023/12/25 02:14:19;;;;;;;0.97;0.80;;;;;;;9.71;78.94;97733.09;5083895;28;20210;-78
2023/12/25 02:16:46;;;;;;;2.00;0.60;;;;;;;9.69;79.17;97735.03;5083940;28;20214;-80
2023/12/25 02:19:23;;;;;;;0.70;0.53;;;;;;;9.63;79.43;97735.47;5083719;28;20218;-78
2023/12/25 02:21:51;;;;;;;1.03;0.70;;;;;;;9.63;79.34;97741.59;5083873;28;20238;-79
2023/12/25 02:24:23;;;;;;;0.63;0.50;;;;;;;9.65;79.15;97734.41;5083203;28;20214;-78
2023/12/25 02:26:51;;;;;;;0.77;0.70;;;;;;;9.63;79.26;97741.59;5083399;28;20211;-78
2023/12/25 02:29:18;;;;;;;0.80;0.70;;;;;;;9.66;78.91;97735.25;5083265;28;20211;-79
2023/12/25 02:31:48;;;;;;;2.20;0.80;;;;;;;9.73;78.31;97741.78;5075852;28;20229;-80
2023/12/25 02:34:14;;;;;;;2.43;0.70;;;;;;;9.75;78.30;97731.94;5074169;28;20265;-79
2023/12/25 02:36:41;;;;;;;0.70;0.60;;;;;;;9.72;78.53;97743.56;5074753;28;20220;-80
2023/12/25 02:39:07;;;;;;;0.73;0.70;;;;;;;9.77;78.05;97736.16;5077041;28;20244;-80
2023/12/25 02:41:34;;;;;;;1.03;0.50;;;;;;;9.76;78.37;97739.75;5084707;28;20227;-78
2023/12/25 02:44:03;;;;;;;1.80;0.60;;;;;;;9.77;78.42;97732.66;5082300;28;20211;-79
2023/12/25 02:46:29;;;;;;;2.27;0.60;;;;;;;9.77;78.08;97722.97;5083809;28;20214;-79
2023/12/25 02:48:56;;;;;;;1.03;0.73;;;;;;;9.78;78.68;97724.66;5084311;28;20214;-79
2023/12/25 02:51:22;;;;;;;0.97;0.60;;;;;;;9.67;79.22;97721.94;5079170;28;20231;-78
2023/12/25 02:53:49;;;;;;;1.03;0.70;;;;;;;9.60;79.61;97733.06;5073104;28;20212;-77
2023/12/25 02:56:15;;;;;;;0.70;0.70;;;;;;;9.57;79.37;97735.91;5074005;28;20220;-77
2023/12/25 02:58:41;;;;;;;0.73;0.70;;;;;;;9.69;78.41;97729.75;5084964;28;20227;-78
2023/12/25 03:01:09;;;;;;;0.70;0.70;;;;;;;9.72;77.55;97716.34;5086219;28;20235;-78
2023/12/25 03:03:36;;;;;;;1.40;0.73;;;;;;;9.72;77.55;97708.44;5087998;28;20228;-78
2023/12/25 03:06:02;;;;;;;0.83;0.50;;;;;;;9.78;75.89;97686.88;5087185;28;20214;-78
2023/12/25 03:08:29;;;;;;;1.73;0.53;;;;;;;9.74;75.90;97685.41;5088981;28;20213;-78
2023/12/25 03:10:56;;;;;;;1.23;0.63;;;;;;;9.75;75.69;97681.81;5088565;28;20211;-78
2023/12/25 03:13:22;;;;;;;1.47;0.60;;;;;;;9.69;75.76;97687.53;5089045;28;20245;-78
2023/12/25 03:15:49;;;;;;;1.13;0.70;;;;;;;9.58;76.27;97692.75;5088979;28;20207;-78
2023/12/25 03:18:16;;;;;;;2.13;0.70;;;;;;;9.58;76.05;97685.69;5088293;28;20235;-78
2023/12/25 03:20:43;;;;;;;0.70;0.70;;;;;;;9.54;75.40;97678.09;5088693;28;20218;-78
2023/12/25 03:23:09;;;;;;;2.07;0.70;;;;;;;9.51;75.69;97673.03;5088285;28;20218;-78
2023/12/25 03:25:36;;;;;;;1.70;0.60;;;;;;;9.52;75.08;97679.97;5088364;28;20217;-78
2023/12/25 03:28:02;;;;;;;1.20;0.80;;;;;;;9.53;74.67;97674.59;5084366;28;20207;-78
2023/12/25 03:30:29;;;;;;;1.00;0.60;;;;;;;9.54;74.31;97671.00;5075134;28;20214;-80
2023/12/25 03:32:55;;;;;;;1.17;0.73;;;;;;;9.48;74.79;97678.53;5085056;28;20235;-78
2023/12/25 03:35:23;;;;;;;0.90;0.50;;;;;;;9.51;74.23;97675.66;5086169;28;20221;-79
2023/12/25 03:37:49;;;;;;;1.27;0.80;;;;;;;9.44;74.73;97682.34;5083886;28;20238;-78
2023/12/25 03:40:16;;;;;;;0.80;0.80;;;;;;;9.40;74.82;97683.50;5086202;28;20277;-78
2023/12/25 03:42:42;;;;;;;0.97;0.83;;;;;;;9.35;75.05;97682.97;5086963;28;20225;-78
2023/12/25 03:45:09;;;;;;;1.67;0.70;;;;;;;9.34;74.75;97686.56;5086138;28;20208;-78
2023/12/25 03:47:35;;;;;;;1.90;0.70;;;;;;;9.31;74.89;97692.91;5090751;28;20204;-79
2023/12/25 03:50:02;;;;;;;0.50;0.50;;;;;;;9.37;74.59;97691.66;5091212;28;20218;-79
2023/12/25 03:52:30;;;;;;;0.73;0.60;;;;;;;9.40;73.90;97675.59;5089952;28;20317;-80
2023/12/25 03:54:56;;;;;;;0.70;0.67;;;;;;;9.40;74.04;97670.31;5089487;28;20218;-78
2023/12/25 03:57:23;;;;;;;0.50;0.50;;;;;;;9.39;73.55;97671.28;5090070;28;20214;-79
2023/12/25 03:59:49;;;;;;;0.57;0.57;;;;;;;9.42;73.58;97673.72;5090243;28;20214;-78
2023/12/25 04:02:16;;;;;;;1.13;0.50;;;;;;;9.37;73.65;97673.19;5085730;28;20244;-78
2023/12/25 04:04:42;;;;;;;0.67;0.60;;;;;;;9.38;73.57;97673.09;5081334;28;20232;-78
2023/12/25 04:07:08;;;;;;;0.60;0.60;;;;;;;9.35;73.51;97675.06;5083086;28;20220;-78
2023/12/25 04:09:36;;;;;;;0.80;0.70;;;;;;;9.37;73.42;97678.47;5083128;28;20224;-78
2023/12/25 04:12:03;;;;;;;0.50;0.50;;;;;;;9.34;73.21;97684.78;5085630;28;20686;-78
2023/12/25 04:14:29;;;;;;;0.77;0.67;;;;;;;9.32;73.67;97693.75;5085179;28;20221;-78
2023/12/25 04:16:56;;;;;;;1.07;0.73;;;;;;;9.33;73.27;97701.56;5083622;28;20209;-78
2023/12/25 04:19:22;;;;;;;0.73;0.63;;;;;;;9.33;73.53;97706.84;5088166;28;20230;-78
2023/12/25 04:21:49;;;;;;;0.70;0.63;;;;;;;9.31;73.31;97698.19;5090310;28;20241;-78
2023/12/25 04:24:15;;;;;;;0.53;0.53;;;;;;;9.32;73.63;97699.03;5089561;28;20281;-79
2023/12/25 04:26:43;;;;;;;0.70;0.50;;;;;;;9.35;73.16;97690.91;5090255;28;20189;-78
2023/12/25 04:29:10;;;;;;;0.80;0.60;;;;;;;9.34;73.31;97700.63;5090104;28;20205;-78
2023/12/25 04:31:36;;;;;;;1.63;0.57;;;;;;;9.25;74.17;97708.34;5089649;28;20288;-78
2023/12/25 04:34:03;;;;;;;4.00;0.70;;;;;;;9.26;73.81;97700.34;5089845;28;20210;-78
2023/12/25 04:36:30;;;;;;;2.57;0.60;;;;;;;9.22;74.10;97704.13;5088617;28;20764;-78
2023/12/25 04:38:58;;;;;;;1.23;0.50;;;;;;;9.31;73.35;97702.63;5089077;28;20233;-78
2023/12/25 04:41:25;;;;;;;0.47;0.47;;;;;;;9.33;73.36;97701.56;5088560;28;20256;-80
2023/12/25 04:43:53;;;;;;;0.70;0.70;;;;;;;9.32;73.55;97713.09;5076855;28;20203;-79
2023/12/25 04:46:20;;;;;;;0.83;0.70;;;;;;;9.34;73.59;97702.41;5079815;28;20211;-78
2023/12/25 04:48:46;;;;;;;0.73;0.60;;;;;;;9.38;73.12;97693.31;5089417;28;20267;-78
2023/12/25 04:51:13;;;;;;;0.77;0.50;;;;;;;9.44;73.04;97696.38;5089107;28;20231;-78
2023/12/25 04:53:39;;;;;;;5.73;2.30;;;;;;;9.40;73.49;97701.97;5088685;28;20213;-79
2023/12/25 04:56:10;;;;;;;0.87;0.60;;;;;;;9.40;73.10;97708.09;5089478;28;20301;-79
2023/12/25 04:58:36;;;;;;;0.30;0.30;;;;;;;9.39;73.21;97705.56;5084641;28;20227;-78
2023/12/25 05:01:05;;;;;;;1.10;0.60;;;;;;;9.40;72.62;97699.31;5084649;28;20214;-78
2023/12/25 05:03:32;;;;;;;1.27;0.57;;;;;;;9.40;72.72;97700.19;5088558;28;20224;-78
2023/12/25 05:05:59;;;;;;;0.60;0.50;;;;;;;9.43;72.55;97691.22;5088070;28;20612;-79
2023/12/25 05:08:25;;;;;;;1.17;0.63;;;;;;;9.43;72.66;97697.31;5088764;28;20673;-78
2023/12/25 05:10:52;;;;;;;0.87;0.60;;;;;;;9.36;72.83;97685.53;5089469;28;20206;-78
2023/12/25 05:13:18;;;;;;;0.83;0.50;;;;;;;9.40;72.91;97696.69;5089082;28;20571;-78
2023/12/25 05:15:45;;;;;;;0.70;0.60;;;;;;;9.38;72.93;97695.97;5089680;28;20208;-80
2023/12/25 05:18:13;;;;;;;0.77;0.70;;;;;;;9.38;72.84;97694.19;5089922;28;20226;-78
2023/12/25 05:20:39;;;;;;;0.50;0.50;;;;;;;9.36;73.11;97688.16;5088259;28;20211;-80
2023/12/25 05:23:06;;;;;;;0.70;0.50;;;;;;;9.39;72.96;97692.38;5089240;28;20238;-79
2023/12/25 05:25:32;;;;;;;1.27;0.70;;;;;;;9.45;72.01;97684.88;5089663;28;20199;-78
2023/12/25 05:27:59;;;;;;;0.60;0.60;;;;;;;9.49;71.87;97682.84;5089942;28;20203;-78
2023/12/25 05:30:25;;;;;;;0.70;0.70;;;;;;;9.54;71.41;97678.09;5090454;28;20359;-79
2023/12/25 05:32:51;;;;;;;1.87;0.67;;;;;;;9.55;71.69;97679.78;5089290;28;20234;-79
2023/12/25 05:35:19;;;;;;;1.13;0.40;;;;;;;9.58;71.67;97680.41;5088564;28;20242;-78
2023/12/25 05:37:46;;;;;;;1.13;0.60;;;;;;;9.57;71.29;97676.09;5088818;28;20699;-78
2023/12/25 05:40:13;;;;;;;0.63;0.60;;;;;;;9.52;72.08;97675.56;5085478;28;20702;-79
2023/12/25 05:42:39;;;;;;;0.70;0.60;;;;;;;9.49;71.78;97678.41;5084965;28;20226;-79
2023/12/25 05:45:07;;;;;;;1.03;0.80;;;;;;;9.51;71.64;97680.94;5085805;28;20222;-78
2023/12/25 05:47:34;;;;;;;0.60;0.60;;;;;;;9.53;70.98;97679.03;5086523;28;20214;-78
2023/12/25 05:50:00;;;;;;;0.70;0.50;;;;;;;9.51;71.55;97688.84;5087290;28;20204;-78
2023/12/25 05:52:28;;;;;;;0.50;0.50;;;;;;;9.48;71.72;97681.19;5087867;28;20233;-78
2023/12/25 05:54:55;;;;;;;0.70;0.50;;;;;;;9.54;70.71;97683.38;5088342;28;20218;-79
2023/12/25 05:57:21;;;;;;;0.70;0.63;;;;;;;9.55;70.65;97685.06;5087966;28;20206;-78
2023/12/25 05:59:48;;;;;;;0.77;0.53;;;;;;;9.54;71.13;97678.09;5088574;28;20256;-78
2023/12/25 06:02:15;;;;;;;0.60;0.60;;;;;;;9.57;70.30;97677.88;5087858;28;20268;-78
2023/12/25 06:04:41;;;;;;;1.70;0.60;;;;;;;9.63;70.14;97677.41;5087960;28;20235;-79
2023/12/25 06:07:09;;;;;;;0.50;0.50;;;;;;;9.60;70.26;97688.22;5087491;28;20215;-79
2023/12/25 06:09:37;;;;;;;0.70;0.60;;;;;;;9.55;70.55;97687.69;5087484;28;20202;-78
2023/12/25 06:12:04;;;;;;;0.50;0.50;;;;;;;9.54;70.86;97699.22;5087332;28;20257;-78
2023/12/25 06:14:31;;;;;;;0.60;0.50;;;;;;;9.54;70.29;97693.94;5086806;28;20215;-79
2023/12/25 06:16:57;;;;;;;0.70;0.50;;;;;;;9.52;70.66;97695.81;5086838;28;20218;-78
2023/12/25 06:19:24;;;;;;;2.03;0.63;;;;;;;9.47;71.10;97692.66;5085336;28;20234;-78
2023/12/25 06:21:50;;;;;;;1.43;0.70;;;;;;;9.45;70.92;97700.69;5087350;28;20627;-78
2023/12/25 06:24:17;;;;;;;1.10;0.63;;;;;;;9.43;70.99;97691.22;5085803;28;20226;-79
2023/12/25 06:26:44;;;;;;;1.00;0.60;;;;;;;9.41;71.29;97701.88;5085677;28;20202;-79
2023/12/25 06:29:11;;;;;;;0.90;0.50;;;;;;;9.40;71.83;97707.25;5086110;28;20505;-78
2023/12/25 06:31:38;;;;;;;0.97;0.60;;;;;;;9.37;71.74;97704.84;5085687;28;20230;-78
2023/12/25 06:34:04;;;;;;;1.13;0.60;;;;;;;9.39;71.60;97700.28;5085510;28;20215;-78
2023/12/25 06:36:31;;;;;;;0.63;0.60;;;;;;;9.38;71.67;97706.50;5087080;28;20237;-79
2023/12/25 06:38:57;;;;;;;2.37;0.60;;;;;;;9.36;72.31;97705.78;5086810;28;20230;-78
2023/12/25 06:41:24;;;;;;;1.13;0.60;;;;;;;9.37;71.88;97699.56;5086654;28;20231;-79
2023/12/25 06:43:51;;;;;;;0.63;0.57;;;;;;;9.38;72.14;97703.88;5081796;28;20220;-79
2023/12/25 06:46:18;;;;;;;0.53;0.50;;;;;;;9.35;72.05;97704.94;5086192;28;20221;-79
2023/12/25 06:48:44;;;;;;;0.60;0.60;;;;;;;9.36;72.31;97711.88;5086799;28;20212;-79
2023/12/25 06:51:11;;;;;;;0.70;0.70;;;;;;;9.34;72.74;97715.59;5086896;28;20245;-78
2023/12/25 06:53:37;;;;;;;0.90;0.50;;;;;;;9.32;72.52;97723.63;5085884;28;20213;-79
2023/12/25 06:56:05;;;;;;;0.60;0.60;;;;;;;9.38;71.68;97719.69;5085821;28;20213;-78
2023/12/25 06:58:31;;;;;;;0.60;0.60;;;;;;;9.37;71.97;97728.56;5085558;28;20250;-78
2023/12/25 07:01:01;;;;;;;0.53;0.50;;;;;;;9.32;71.82;97720.13;5086274;28;20207;-78
2023/12/25 07:03:28;;;;;;;0.90;0.70;;;;;;;9.24;72.61;97730.38;5085366;28;20217;-78
2023/12/25 07:05:54;;;;;;;0.50;0.50;;;;;;;9.21;72.67;97727.94;5084960;28;20211;-80
2023/12/25 07:08:21;;;;;;;0.60;0.60;;;;;;;9.17;73.19;97743.16;5085619;28;20203;-79
2023/12/25 07:10:47;;;;;;;1.00;0.80;;;;;;;9.19;72.04;97740.41;5085359;28;20207;-78
2023/12/25 07:13:15;;;;;;;0.83;0.70;;;;;;;9.17;72.23;97742.31;5085302;28;20216;-79
2023/12/25 07:15:42;;;;;;;1.70;0.87;;;;;;;9.16;72.14;97745.88;5084289;28;20297;-79
2023/12/25 07:18:11;;;;;;;0.70;0.70;;;;;;;9.17;72.71;97747.59;5084977;28;20241;-79
2023/12/25 07:20:37;;;;;;;2.80;0.77;;;;;;;9.17;72.31;97737.03;5086072;28;20230;-79
2023/12/25 07:23:04;;;;;;;0.57;0.57;;;;;;;9.22;72.43;97750.72;5089541;28;20235;-79
2023/12/25 07:25:30;;;;;;;0.93;0.70;;;;;;;9.22;72.42;97750.72;5088623;28;20222;-79
2023/12/25 07:27:57;;;;;;;0.60;0.60;;;;;;;9.22;72.20;97741.03;5088170;28;20206;-79
2023/12/25 07:30:23;;;;;;;1.07;0.67;;;;;;;9.23;72.09;97752.44;5088165;28;20563;-79
2023/12/25 07:32:50;;;;;;;0.70;0.70;;;;;;;9.22;71.78;97742.81;5088068;28;20234;-79
2023/12/25 07:35:18;;;;;;;1.07;0.70;;;;;;;9.20;71.54;97742.94;5088116;28;20223;-79
2023/12/25 07:37:45;;;;;;;0.70;0.70;;;;;;;9.23;72.30;97762.97;5092859;28;20305;-79
2023/12/25 07:40:12;;;;;;;0.70;0.70;;;;;;;9.25;71.42;97758.44;5092090;28;20240;-79
2023/12/25 07:42:39;;;;;;;1.00;0.70;;;;;;;9.30;70.58;97759.78;5092496;28;20234;-79
2023/12/25 07:45:06;;;;;;;0.50;0.50;;;;;;;9.30;71.63;97785.34;5091530;28;20221;-79
2023/12/25 07:47:33;;;;;;;0.60;0.60;;;;;;;9.34;70.92;97778.88;5092309;28;20221;-79
2023/12/25 07:49:59;;;;;;;1.40;0.70;;;;;;;9.39;71.48;97782.91;5091510;28;20301;-79
2023/12/25 07:52:27;;;;;;;0.80;0.70;;;;;;;9.41;71.99;97782.78;5091817;28;20292;-79
2023/12/25 07:54:54;;;;;;;0.90;0.70;;;;;;;9.35;71.97;97776.13;5091122;28;20232;-79
2023/12/25 07:57:21;;;;;;;0.97;0.80;;;;;;;9.31;72.89;97797.56;5091917;28;20278;-79
2023/12/25 07:59:48;;;;;;;1.03;0.70;;;;;;;9.32;73.48;97812.44;5090412;28;20265;-79
2023/12/25 08:02:15;;;;;;;1.50;0.87;;;;;;;9.36;73.07;97806.00;5089611;28;20245;-78
2023/12/25 08:04:41;;;;;;;2.00;0.80;;;;;;;9.38;71.26;97793.56;5088164;28;20214;-79
2023/12/25 08:07:08;;;;;;;0.60;0.50;;;;;;;9.45;70.78;97790.38;5086532;28;20213;-78
2023/12/25 08:09:36;;;;;;;0.67;0.67;;;;;;;9.54;71.23;97796.81;5089617;28;20301;-79
2023/12/25 08:12:03;;;;;;;0.83;0.63;;;;;;;9.60;69.73;97781.38;5088246;28;20230;-78
2023/12/25 08:14:29;;;;;;;0.73;0.70;;;;;;;9.62;69.80;97787.38;5088116;28;20316;-79
2023/12/25 08:16:56;;;;;;;1.07;0.80;;;;;;;9.66;70.07;97795.94;5087942;28;20213;-79
2023/12/25 08:19:22;;;;;;;0.67;0.67;;;;;;;9.71;70.25;97799.09;5085512;28;20234;-78
2023/12/25 08:21:49;;;;;;;1.00;0.90;;;;;;;9.72;69.98;97787.59;5088543;28;20231;-78
2023/12/25 08:24:16;;;;;;;1.90;0.87;;;;;;;9.73;69.29;97784.81;5086809;28;20678;-79
2023/12/25 08:26:44;;;;;;;0.80;0.63;;;;;;;9.77;69.56;97802.13;5089830;28;20236;-78
2023/12/25 08:29:10;;;;;;;1.00;0.70;;;;;;;9.78;71.17;97814.38;5090058;28;20214;-78
2023/12/25 08:31:39;;;;;;;1.07;0.70;;;;;;;9.83;71.37;97832.53;5082222;28;20257;-79
2023/12/25 08:34:06;;;;;;;0.80;0.70;;;;;;;9.86;70.37;97827.03;5083360;28;20215;-78
2023/12/25 08:36:33;;;;;;;0.73;0.73;;;;;;;9.86;69.98;97830.50;5080521;28;20235;-78
2023/12/25 08:39:00;;;;;;;2.27;0.70;;;;;;;9.89;69.23;97822.38;5083611;28;20219;-79
2023/12/25 08:41:26;;;;;;;1.30;0.97;;;;;;;9.86;70.40;97827.03;5085193;28;20269;-80
2023/12/25 08:43:54;;;;;;;1.03;0.60;;;;;;;9.92;70.59;97847.72;5081863;28;20235;-78
2023/12/25 08:46:20;;;;;;;0.77;0.70;;;;;;;9.95;70.05;97831.66;5076179;28;20210;-78
2023/12/25 08:48:48;;;;;;;1.00;0.70;;;;;;;10.01;69.64;97836.50;5082098;28;20217;-78
2023/12/25 08:51:15;;;;;;;0.60;0.60;;;;;;;10.06;70.20;97840.53;5085687;28;20224;-78
2023/12/25 08:53:43;;;;;;;1.23;0.67;;;;;;;10.08;70.66;97841.25;5085091;28;20215;-78
2023/12/25 08:56:09;;;;;;;0.60;0.60;;;;;;;10.12;70.48;97840.09;5085807;28;20423;-79
2023/12/25 08:58:36;;;;;;;1.07;0.70;;;;;;;10.16;71.54;97835.44;5084939;28;20223;-78
2023/12/25 09:01:05;;;;;;;0.80;0.60;;;;;;;10.15;71.96;97839.03;5087977;28;20225;-79
2023/12/25 09:03:31;;;;;;;0.70;0.63;;;;;;;10.19;70.61;97843.13;5087639;28;20278;-79
2023/12/25 09:05:58;;;;;;;1.70;0.67;;;;;;;10.13;70.49;97839.13;5089808;28;20456;-79
2023/12/25 09:08:25;;;;;;;0.73;0.70;;;;;;;10.14;70.84;97848.75;5088846;28;20210;-79
2023/12/25 09:10:51;;;;;;;1.00;0.80;;;;;;;10.18;70.90;97841.44;5087498;28;20200;-79
2023/12/25 09:13:18;;;;;;;0.60;0.60;;;;;;;10.16;70.32;97843.38;5083594;28;20662;-78
2023/12/25 09:15:44;;;;;;;0.90;0.60;;;;;;;10.13;71.54;97856.78;5080908;28;20725;-78
2023/12/25 09:18:12;;;;;;;0.77;0.70;;;;;;;10.14;72.38;97864.59;5080281;28;20225;-80
2023/12/25 09:20:39;;;;;;;0.80;0.70;;;;;;;10.17;72.20;97858.25;5084674;28;20245;-79
2023/12/25 09:23:05;;;;;;;0.60;0.60;;;;;;;10.17;72.73;97868.81;5084634;28;20700;-79
2023/12/25 09:25:32;;;;;;;0.87;0.60;;;;;;;10.14;73.10;97876.94;5077785;28;20215;-78
2023/12/25 09:27:59;;;;;;;0.60;0.60;;;;;;;10.15;73.64;97889.22;5075199;28;20305;-77
2023/12/25 09:30:25;;;;;;;1.10;0.63;;;;;;;10.13;73.68;97899.03;5073496;28;20204;-79
2023/12/25 09:32:52;;;;;;;0.73;0.70;;;;;;;10.11;75.56;97916.78;5074192;28;20249;-78
2023/12/25 09:35:20;;;;;;;0.80;0.70;;;;;;;10.13;75.61;97933.34;5074450;28;20213;-77
2023/12/25 09:37:46;;;;;;;0.50;0.50;;;;;;;10.23;77.21;97934.41;5077482;28;20212;-81
2023/12/25 09:40:13;;;;;;;0.63;0.60;;;;;;;10.29;75.91;97918.94;5076740;28;20688;-76
2023/12/25 09:42:39;;;;;;;0.83;0.63;;;;;;;10.36;76.16;97927.28;5072533;28;20233;-77
2023/12/25 09:45:10;;;;;;;1.33;0.83;;;;;;;10.39;76.16;97927.09;5071964;28;20210;-78
2023/12/25 09:47:37;;;;;;;0.60;0.60;;;;;;;10.44;74.81;97914.38;5072238;28;20213;-77
2023/12/25 09:50:05;;;;;;;0.73;0.73;;;;;;;10.49;75.36;97906.94;5072143;28;20209;-77
2023/12/25 09:52:33;;;;;;;1.10;0.80;;;;;;;10.45;76.75;97918.72;5072124;28;20235;-77
2023/12/25 09:55:00;;;;;;;1.33;0.50;;;;;;;10.43;77.63;97924.09;5072452;28;20209;-77
2023/12/25 09:57:27;;;;;;;0.80;0.50;;;;;;;10.44;79.09;97935.50;5072003;28;20295;-77
2023/12/25 09:59:55;;;;;;;1.03;0.60;;;;;;;10.47;80.34;97938.75;5072792;28;20229;-78
2023/12/25 10:02:23;;;;;;;0.87;0.60;;;;;;;10.50;79.51;97925.34;5072083;28;20588;-80
2023/12/25 10:04:50;;;;;;;1.23;0.57;;;;;;;10.59;79.86;97907.97;5072589;28;20212;-78
2023/12/25 10:07:20;;;;;;;0.50;0.50;;;;;;;10.63;79.03;97906.78;5075964;28;20740;-78
2023/12/25 10:09:48;;;;;;;0.80;0.67;;;;;;;10.66;78.66;97903.94;5075233;28;20201;-79
2023/12/25 10:12:15;;;;;;;0.70;0.70;;;;;;;10.65;79.61;97908.38;5075520;28;20233;-79
2023/12/25 10:14:41;;;;;;;0.53;0.50;;;;;;;10.59;80.00;97907.97;5075918;28;20688;-78
2023/12/25 10:17:08;;;;;;;0.50;0.50;;;;;;;10.52;79.65;97898.81;5078193;28;20206;-79
2023/12/25 10:19:49;;;;;;;1.43;0.60;;;;;;;10.50;80.08;97903.34;5076942;28;20215;-78
2023/12/25 10:22:28;;;;;;;0.80;0.73;;;;;;;10.43;82.11;97912.69;5078121;28;20236;-77
2023/12/25 10:25:04;;;;;;;0.60;0.57;;;;;;;10.50;82.13;97908.63;5078551;28;20227;-78
2023/12/25 10:27:31;;;;;;;0.50;0.50;;;;;;;10.57;81.82;97902.81;5072986;28;20303;-79
2023/12/25 10:29:58;;;;;;;0.50;0.50;;;;;;;10.66;81.03;97903.94;5071711;28;20201;-77
2023/12/25 10:32:25;;;;;;;1.70;0.70;;;;;;;10.72;81.21;97906.13;5071904;28;20874;-80
2023/12/25 10:34:51;;;;;;;0.50;0.50;;;;;;;10.85;80.68;97901.63;5072470;28;20208;-78
2023/12/25 10:37:18;;;;;;;0.73;0.40;;;;;;;10.97;81.16;97903.38;5077753;28;20683;-77
2023/12/25 10:39:44;;;;;;;0.50;0.50;;;;;;;11.06;82.18;97907.97;5077684;28;20213;-78
2023/12/25 10:42:13;;;;;;;1.03;0.50;;;;;;;11.22;81.89;97908.50;5075765;28;20253;-79
2023/12/25 10:44:42;;;;;;;1.13;0.40;;;;;;;11.22;81.16;97898.78;5076848;28;20203;-78
2023/12/25 10:47:11;;;;;;;0.40;0.40;;;;;;;11.23;80.52;97896.97;5077260;28;20551;-78
2023/12/25 10:49:41;;;;;;;0.50;0.50;;;;;;;11.20;80.41;97887.44;5077828;28;20216;-78
2023/12/25 10:52:10;;;;;;;1.33;0.47;;;;;;;11.17;81.30;97894.78;5073645;28;20229;-77
2023/12/25 10:54:38;;;;;;;0.67;0.50;;;;;;;11.14;81.65;97895.03;5071399;28;20217;-77
2023/12/25 10:57:08;;;;;;;0.50;0.50;;;;;;;11.22;82.09;97895.28;5074860;28;20260;-79
2023/12/25 10:59:43;;;;;;;0.97;0.90;;;;;;;11.32;81.83;97893.63;5077227;28;20222;-79
2023/12/25 11:02:13;;;;;;;0.63;0.40;;;;;;;11.35;81.59;97899.53;5078402;28;20240;-77
2023/12/25 11:04:41;;;;;;;0.40;0.40;;;;;;;11.39;81.01;97894.84;5080787;28;20391;-78
2023/12/25 11:07:07;;;;;;;0.67;0.50;;;;;;;11.43;81.78;97885.72;5082415;28;20216;-78
2023/12/25 11:09:35;;;;;;;0.40;0.40;;;;;;;11.40;81.63;97891.25;5083794;28;20275;-78
2023/12/25 11:12:02;;;;;;;2.03;0.50;;;;;;;11.37;80.78;97896.78;5084933;28;20227;-78
2023/12/25 11:14:29;;;;;;;0.30;0.30;;;;;;;11.43;81.12;97896.31;5086793;28;20203;-80
2023/12/25 11:16:58;;;;;;;1.87;0.40;;;;;;;11.40;80.41;97885.94;5083711;28;20213;-78
2023/12/25 11:19:25;;;;;;;0.33;0.33;;;;;;;11.35;81.58;97903.97;5081504;28;20207;-81
2023/12/25 11:21:51;;;;;;;0.30;0.30;;;;;;;11.31;81.81;97902.53;5082403;28;20237;-80
2023/12/25 11:24:18;;;;;;;0.37;0.37;;;;;;;11.23;81.19;97900.47;5086034;28;20219;-80
2023/12/25 11:26:46;;;;;;;1.47;0.50;;;;;;;11.28;80.99;97902.75;5081587;28;20218;-80
2023/12/25 11:29:13;;;;;;;0.83;0.57;;;;;;;11.24;80.91;97906.56;5083099;28;20319;-80
2023/12/25 11:31:45;;;;;;;0.90;0.50;;;;;;;11.29;81.84;97909.72;5078919;28;20228;-78
2023/12/25 11:34:20;;;;;;;0.40;0.30;;;;;;;11.30;80.96;97904.31;5078336;28;20205;-79
2023/12/25 11:36:49;;;;;;;3.20;1.97;;;;;;;11.32;82.20;97906.88;5083572;28;20233;-78
2023/12/25 11:39:16;;;;;;;4.93;2.70;;;;;;;11.37;81.27;97910.00;5086482;28;20273;-79